ADDS TAF Board INFO
 
 

IDs: Format: Expanded Condensed

KLAS - Las Vegas/McCarran I, NV, US

Issued at 1434 UTC 30 Jul 2014
Time1456Z30/16Z30/17Z30/18Z30/19Z30/20Z30/21Z30/22Z30/23Z31/00Z31/01Z31/02Z31/03Z31/04Z
TypeOBSPRVLPRVLPRVLPRVLPRVLPRVLPRVLPRVLPRVLPRVLPRVLPRVLPRVL
Vis10>6>6>6>6>6>6>6>6>6>6>6>6>6
Cig--------------------250250250250
CoverFEWFEWFEWFEWSCTSCTSCTSCTSCTSCTBKNBKNBKNBKN
FltCat--VFRVFRVFRVFRVFRVFRVFRVFRVFRVFRVFRVFRVFR
Wx----------------------------
WDirVRB101010808080808080240240240240
WSpd07777777779999
WGst----------------------------
R01/19
XWndVRB222-6-6-6-6-6-65555
HWndVRB777444444-7-7-7-7
R07/25
XWndVRB777111111-4-4-4-4
HWndVRB111777777-8-8-8-8
Raw TAF
KLAS 301434Z 3015/3112 01007KT P6SM FEW250
  FM301900 08007KT P6SM SCT110 SCT250
  FM310100 24009KT P6SM SCT110 BKN250


Raw METAR
KLAS 301456Z 00000KT 10SM FEW250 32/13 A2996 RMK AO2 SLP113 T03220128 51014

TAF Board Legend

Hazard Green Yellow Red Magenta
Visibility (sm) >5 >2.99 >0.99 <=0.99
Ceiling (100 ft) >30 >9.99 >4.99 <=4.99
Wind Speed (kt) <10 <20 <30 >=30
Wind Gust (kt) <10 <20 <30 >=30
Weather No Wx Reported Light precipitation Moderate precipitation Heavy precipitation
Flight Category VFR MVFR IFR LIFR

Page loaded:  15:09 UTC  |   08:09 AM Pacific  |   09:09 AM Mountain  |   10:09 AM Central  |   11:09 AM Eastern

 

ADVISORIES

FORECASTS

FORECASTS

OBSERVATIONS

USER TOOLS

ABOUT US